Time;durP1;ratioP1;P1;durP2;ratioP2;P2;SDS_P1;SDS_P2;PMS_P1;PMS_P2;Temp;Humidity;BMP_temperature;BMP_pressure;BME280_temperature;BME280_humidity;BME280_pressure;Samples;Min_cycle;Max_cycle;Signal;HPM_P1;HPM_P2
2022/06/23 00:01:58;;;;;;;7.45;4.10;;;;;;;13.99;100.00;100864.75;5029733;28;20850;-82
2022/06/23 00:04:41;;;;;;;7.93;4.18;;;;;;;13.97;100.00;100858.75;5031646;28;20903;-82
2022/06/23 00:07:18;;;;;;;6.90;4.00;;;;;;;13.88;100.00;100861.34;5036247;28;20417;-82
2022/06/23 00:09:52;;;;;;;7.75;4.25;;;;;;;13.85;100.00;100863.88;5031869;28;20422;-82
2022/06/23 00:12:29;;;;;;;6.80;3.95;;;;;;;13.84;100.00;100860.31;5032549;28;20422;-82
2022/06/23 00:15:24;;;;;;;6.30;3.90;;;;;;;13.99;100.00;100863.91;5030797;28;20425;-82
2022/06/23 00:18:02;;;;;;;9.43;4.30;;;;;;;13.98;100.00;100868.59;5031775;28;20427;-82
2022/06/23 00:20:35;;;;;;;8.60;4.05;;;;;;;14.03;100.00;100873.16;5032965;28;20413;-81
2022/06/23 00:23:14;;;;;;;6.55;3.50;;;;;;;13.98;100.00;100868.59;5025966;28;21042;-82
2022/06/23 00:25:52;;;;;;;7.03;3.70;;;;;;;14.02;100.00;100866.09;5027853;28;20437;-82
2022/06/23 00:28:28;;;;;;;6.47;3.70;;;;;;;13.73;100.00;100862.41;5035321;28;20432;-82
2022/06/23 00:30:59;;;;;;;7.23;3.97;;;;;;;13.72;100.00;100863.50;5026493;28;20503;-81
2022/06/23 00:33:39;;;;;;;7.00;3.70;;;;;;;13.64;100.00;100866.91;5029840;28;20450;-81
2022/06/23 00:36:17;;;;;;;7.70;4.10;;;;;;;13.52;100.00;100856.44;5028457;28;20430;-82
2022/06/23 00:38:45;;;;;;;6.15;3.97;;;;;;;13.64;100.00;100874.31;5029851;28;20414;-82
2022/06/23 00:41:23;;;;;;;6.38;4.03;;;;;;;13.55;100.00;100872.22;5030555;28;20421;-81
2022/06/23 00:44:00;;;;;;;7.45;3.92;;;;;;;13.53;100.00;100876.38;5034543;28;20422;-82
2022/06/23 00:46:35;;;;;;;10.57;3.90;;;;;;;13.57;100.00;100877.41;5032556;28;20426;-81
2022/06/23 00:49:17;;;;;;;7.53;4.00;;;;;;;13.53;100.00;100876.38;5028102;28;20423;-81
2022/06/23 00:51:49;;;;;;;6.95;3.80;;;;;;;13.56;100.00;100878.50;5029604;28;20756;-81
2022/06/23 00:54:27;;;;;;;7.72;4.05;;;;;;;13.53;100.00;100874.44;5031284;28;20430;-81
2022/06/23 00:57:13;;;;;;;7.53;3.80;;;;;;;13.64;100.00;100872.38;5025064;28;20423;-81
2022/06/23 00:59:53;;;;;;;8.27;3.67;;;;;;;13.66;100.00;100872.91;5030151;28;20459;-82
2022/06/23 01:02:34;;;;;;;5.83;3.67;;;;;;;13.65;100.00;100873.22;5028580;28;20923;-81
2022/06/23 01:05:16;;;;;;;7.05;3.63;;;;;;;13.58;100.00;100879.84;5025949;28;20422;-82
2022/06/23 01:07:58;;;;;;;5.70;3.30;;;;;;;13.55;100.00;100880.44;5024090;28;20923;-81
2022/06/23 01:10:38;;;;;;;6.05;3.50;;;;;;;13.54;100.00;100886.19;5027389;28;20427;-81
2022/06/23 01:13:15;;;;;;;6.90;3.60;;;;;;;13.55;100.00;100882.38;5034548;28;20426;-81
2022/06/23 01:15:54;;;;;;;6.25;3.25;;;;;;;13.50;100.00;100872.31;5027382;28;20831;-81
2022/06/23 01:18:35;;;;;;;6.07;3.30;;;;;;;13.48;100.00;100890.94;5032220;28;20411;-81
2022/06/23 01:21:16;;;;;;;7.32;3.65;;;;;;;13.51;100.00;100892.28;5033747;28;20469;-81
2022/06/23 01:24:15;;;;;;;6.68;3.40;;;;;;;13.47;100.00;100891.22;5030635;28;20415;-81
2022/06/23 01:27:00;;;;;;;7.28;3.50;;;;;;;13.41;100.00;100877.63;5026943;28;20505;-81
2022/06/23 01:29:41;;;;;;;6.28;3.45;;;;;;;13.44;100.00;100887.97;5029668;28;20399;-80
2022/06/23 01:32:21;;;;;;;7.13;3.10;;;;;;;13.42;100.00;100886.63;5025123;28;20461;-80
2022/06/23 01:34:53;;;;;;;5.35;3.15;;;;;;;13.44;100.00;100890.69;5029758;28;20423;-80
2022/06/23 01:37:30;;;;;;;6.18;3.30;;;;;;;13.39;100.00;100885.28;5028834;28;20431;-80
2022/06/23 01:40:11;;;;;;;6.45;3.35;;;;;;;13.34;100.00;100892.72;5029317;28;20880;-81
2022/06/23 01:42:50;;;;;;;5.95;3.42;;;;;;;13.14;100.00;100891.06;5034271;28;20415;-80
2022/06/23 01:45:28;;;;;;;5.93;3.38;;;;;;;13.26;100.00;100891.47;5030506;28;20414;-80
2022/06/23 01:48:09;;;;;;;6.78;3.72;;;;;;;13.22;100.00;100902.16;5028870;28;20784;-81
2022/06/23 01:50:49;;;;;;;5.17;3.23;;;;;;;13.23;100.00;100903.78;5028207;28;20423;-80
2022/06/23 01:53:29;;;;;;;5.80;3.03;;;;;;;13.21;100.00;100899.72;5036111;28;20431;-80
2022/06/23 01:56:16;;;;;;;6.05;3.22;;;;;;;13.17;100.00;100909.59;5025400;28;20414;-80
2022/06/23 01:58:54;;;;;;;6.05;3.50;;;;;;;12.98;100.00;100909.53;5031210;28;20434;-80
2022/06/23 02:01:36;;;;;;;5.63;3.28;;;;;;;12.97;100.00;100908.75;5030570;28;20423;-81
2022/06/23 02:04:17;;;;;;;6.25;3.67;;;;;;;13.04;100.00;100909.19;5027492;28;20440;-80
2022/06/23 02:06:54;;;;;;;5.43;3.35;;;;;;;13.03;100.00;100913.03;5030435;28;20422;-81
2022/06/23 02:09:33;;;;;;;5.35;3.30;;;;;;;13.02;100.00;100913.31;5030809;28;20419;-80
2022/06/23 02:12:18;;;;;;;5.53;3.50;;;;;;;13.00;100.00;100912.81;5029413;28;20426;-80
2022/06/23 02:14:59;;;;;;;5.40;3.28;;;;;;;12.93;100.00;100915.88;5029185;28;20440;-80
2022/06/23 02:17:41;;;;;;;6.43;3.42;;;;;;;12.81;100.00;100913.53;5034952;28;20413;-80
2022/06/23 02:20:29;;;;;;;5.73;3.40;;;;;;;12.86;100.00;100913.50;5029778;28;20426;-80
2022/06/23 02:23:28;;;;;;;5.18;3.15;;;;;;;12.84;100.00;100912.16;5029325;28;20430;-80
2022/06/23 02:26:07;;;;;;;6.10;3.42;;;;;;;12.78;100.00;100905.13;5023983;28;20434;-80
2022/06/23 02:28:46;;;;;;;5.95;3.50;;;;;;;12.83;100.00;100925.00;5027473;28;20422;-79
2022/06/23 02:31:20;;;;;;;5.03;2.97;;;;;;;12.80;100.00;100930.22;5025458;28;20427;-79
2022/06/23 02:34:00;;;;;;;6.67;3.60;;;;;;;12.63;100.00;100914.28;5026058;28;20795;-80
2022/06/23 02:36:55;;;;;;;6.15;3.90;;;;;;;12.70;100.00;100923.75;5029781;28;20423;-79
2022/06/23 02:39:36;;;;;;;5.95;3.60;;;;;;;12.68;100.00;100922.44;5024659;28;20445;-79
2022/06/23 02:42:14;;;;;;;6.60;3.80;;;;;;;12.67;100.00;100920.81;5029463;28;20415;-80
2022/06/23 02:45:25;;;;;;;6.85;3.80;;;;;;;12.51;100.00;100911.94;5026003;28;20423;-81
2022/06/23 02:48:09;;;;;;;5.60;3.45;;;;;;;12.57;100.00;100918.97;5028064;28;20430;-80
2022/06/23 02:50:59;;;;;;;6.10;3.50;;;;;;;12.55;100.00;100926.63;5028529;28;20422;-80
2022/06/23 02:53:53;;;;;;;6.38;3.78;;;;;;;12.54;100.00;100931.28;5034882;28;20508;-81
2022/06/23 02:56:39;;;;;;;6.28;3.40;;;;;;;12.55;100.00;100929.38;5029332;28;20411;-80
2022/06/23 02:59:18;;;;;;;7.55;3.97;;;;;;;12.52;100.00;100933.47;5027696;28;20415;-80
2022/06/23 03:01:57;;;;;;;7.07;3.88;;;;;;;12.57;100.00;100927.97;5027969;28;20924;-80
2022/06/23 03:04:38;;;;;;;6.65;3.67;;;;;;;12.60;100.00;100934.78;5030372;28;20411;-80
2022/06/23 03:07:20;;;;;;;6.80;3.88;;;;;;;12.51;100.00;100929.13;5027364;28;20423;-81
2022/06/23 03:10:04;;;;;;;6.55;3.63;;;;;;;12.51;100.00;100934.59;5025048;28;20425;-81
2022/06/23 03:12:42;;;;;;;6.97;3.90;;;;;;;12.52;100.00;100932.66;5015135;28;20458;-80
2022/06/23 03:15:16;;;;;;;6.80;3.53;;;;;;;12.54;100.00;100934.03;5027897;28;20431;-81
2022/06/23 03:17:55;;;;;;;6.95;3.72;;;;;;;12.46;100.00;100940.09;5029410;28;20419;-81
2022/06/23 03:20:38;;;;;;;6.53;4.03;;;;;;;12.46;100.00;100931.09;5029139;28;20420;-81
2022/06/23 03:23:21;;;;;;;6.47;3.78;;;;;;;12.54;100.00;100936.75;5025320;28;21109;-81
2022/06/23 03:26:01;;;;;;;8.50;3.80;;;;;;;12.58;100.00;100931.50;5027237;28;20419;-81
2022/06/23 03:28:40;;;;;;;6.35;3.58;;;;;;;12.51;100.00;100926.41;5028603;28;20430;-81
2022/06/23 03:31:21;;;;;;;6.65;3.90;;;;;;;12.63;100.00;100930.66;5024802;28;20418;-81
2022/06/23 03:34:00;;;;;;;6.95;4.10;;;;;;;12.67;100.00;100937.97;5032975;28;20419;-81
2022/06/23 03:36:42;;;;;;;6.00;3.85;;;;;;;12.74;100.00;100935.72;5031542;28;20419;-80
2022/06/23 03:42:23;;;;;;;8.50;4.73;;;;;;;12.85;100.00;100935.63;5025942;28;20485;-81
2022/06/23 03:45:05;;;;;;;7.10;4.25;;;;;;;12.91;100.00;100945.41;5030261;28;20422;-81
2022/06/23 03:47:43;;;;;;;6.38;4.18;;;;;;;12.92;100.00;100942.38;5026917;28;20419;-81
2022/06/23 03:50:22;;;;;;;8.18;4.10;;;;;;;12.91;100.00;100945.41;5027804;28;20442;-80
2022/06/23 03:53:00;;;;;;;7.65;4.55;;;;;;;12.93;100.00;100935.81;5033517;28;20434;-80
2022/06/23 03:55:41;;;;;;;7.07;4.38;;;;;;;12.96;100.00;100939.09;5027351;28;20449;-81
2022/06/23 03:58:18;;;;;;;8.65;4.55;;;;;;;12.96;100.00;100941.81;5027454;28;20426;-80
2022/06/23 04:00:58;;;;;;;7.60;3.92;;;;;;;12.92;100.00;100931.44;5025470;28;20422;-80
2022/06/23 04:03:37;;;;;;;7.82;4.30;;;;;;;12.94;100.00;100933.91;5030067;28;20425;-80
2022/06/23 04:06:34;;;;;;;8.23;4.40;;;;;;;13.02;100.00;100937.91;5028362;28;20413;-80
2022/06/23 04:09:14;;;;;;;9.20;4.65;;;;;;;13.00;100.00;100931.94;5022602;28;20446;-81
2022/06/23 04:11:58;;;;;;;8.13;4.45;;;;;;;13.04;100.00;100944.72;5030818;28;20426;-80
2022/06/23 04:14:44;;;;;;;8.50;4.47;;;;;;;13.03;100.00;100940.34;5029810;28;20434;-80
2022/06/23 04:17:30;;;;;;;9.90;4.33;;;;;;;13.05;100.00;100940.88;5030557;28;20437;-80
2022/06/23 04:20:11;;;;;;;9.98;4.30;;;;;;;13.18;100.00;100946.75;5028151;28;20791;-79
2022/06/23 04:22:49;;;;;;;8.13;4.05;;;;;;;13.19;100.00;100943.75;5027386;28;20411;-79
2022/06/23 04:25:25;;;;;;;7.35;4.00;;;;;;;13.27;100.00;100950.47;5028540;28;20769;-80
2022/06/23 04:28:02;;;;;;;10.75;4.10;;;;;;;13.25;100.00;100953.50;5023029;28;20421;-79
2022/06/23 04:30:39;;;;;;;7.85;4.03;;;;;;;13.29;100.00;100959.19;5027093;28;20624;-79
2022/06/23 04:33:17;;;;;;;7.80;4.10;;;;;;;13.31;100.00;100954.25;5033407;28;20494;-80
2022/06/23 04:35:53;;;;;;;7.75;4.28;;;;;;;13.34;100.00;100955.59;5028738;28;20438;-79
2022/06/23 04:38:34;;;;;;;8.90;4.80;;;;;;;13.32;100.00;100955.88;5027146;28;20445;-79
2022/06/23 04:41:11;;;;;;;8.40;4.90;;;;;;;13.44;100.00;100956.31;5019059;28;20914;-79
2022/06/23 04:43:49;;;;;;;7.65;4.32;;;;;;;13.48;100.00;100944.78;5023533;28;20914;-80
2022/06/23 04:46:21;;;;;;;8.90;4.93;;;;;;;13.50;100.00;100937.13;5027131;28;20419;-80
2022/06/23 04:48:58;;;;;;;8.52;4.90;;;;;;;13.57;100.00;100943.03;5035012;28;20442;-79
2022/06/23 04:51:30;;;;;;;9.73;4.60;;;;;;;13.60;100.00;100951.47;5034306;28;20411;-79
2022/06/23 04:54:07;;;;;;;7.60;4.60;;;;;;;13.66;100.00;100946.75;5031914;28;20430;-79
2022/06/23 04:56:45;;;;;;;9.40;4.80;;;;;;;13.78;100.00;100949.88;5030198;28;20465;-80
2022/06/23 04:59:29;;;;;;;7.70;4.70;;;;;;;13.88;100.00;100953.53;5028998;28;20427;-80
2022/06/23 05:02:15;;;;;;;10.02;4.30;;;;;;;14.06;100.00;100960.16;5027621;28;20426;-80
2022/06/23 05:04:46;;;;;;;7.57;4.20;;;;;;;14.10;100.00;100959.25;5030890;28;20410;-80
2022/06/23 05:07:22;;;;;;;7.72;4.22;;;;;;;14.51;100.00;100962.44;5029680;28;20792;-81
2022/06/23 05:09:55;;;;;;;6.85;3.95;;;;;;;15.58;100.00;100961.59;5031392;28;20415;-80
2022/06/23 05:12:32;;;;;;;7.78;4.00;;;;;;;17.61;100.00;100949.63;5034849;28;20422;-80
2022/06/23 05:15:16;;;;;;;7.97;3.83;;;;;;;18.46;100.00;100948.38;5030296;28;20826;-80
2022/06/23 05:17:54;;;;;;;5.72;3.35;;;;;;;19.52;100.00;100949.56;5030400;28;20418;-79
2022/06/23 05:20:35;;;;;;;6.30;3.10;;;;;;;20.92;100.00;100953.09;5032627;28;20779;-79
2022/06/23 05:23:15;;;;;;;4.78;2.88;;;;;;;21.90;100.00;100938.41;5030395;28;20415;-79
2022/06/23 05:25:51;;;;;;;3.85;2.63;;;;;;;22.47;100.00;100944.00;5029101;28;20799;-80
2022/06/23 05:28:29;;;;;;;4.53;2.42;;;;;;;23.35;100.00;100934.72;5024916;28;20421;-81
2022/06/23 05:31:08;;;;;;;5.30;2.30;;;;;;;22.54;100.00;100946.16;5019923;28;20436;-81
2022/06/23 05:33:46;;;;;;;5.97;2.30;;;;;;;23.29;100.00;100933.38;5014837;28;20433;-81
2022/06/23 05:36:23;;;;;;;4.00;2.33;;;;;;;23.10;100.00;100939.63;5017629;28;20438;-79
2022/06/23 05:39:01;;;;;;;7.75;5.45;;;;;;;23.41;100.00;100933.25;5024128;28;20506;-80
2022/06/23 05:41:38;;;;;;;8.63;5.63;;;;;;;22.88;100.00;100935.53;5020720;28;20424;-81
2022/06/23 05:44:10;;;;;;;4.38;2.10;;;;;;;22.12;100.00;100939.03;5024571;28;20412;-82
2022/06/23 05:46:48;;;;;;;3.70;2.10;;;;;;;21.69;100.00;100933.03;5026676;28;20431;-84
2022/06/23 05:49:25;;;;;;;3.33;1.92;;;;;;;21.10;100.00;100941.81;5025217;28;20427;-80
2022/06/23 05:52:05;;;;;;;4.88;2.00;;;;;;;20.34;100.00;100942.81;5048973;28;20417;-80
2022/06/23 05:54:43;;;;;;;5.70;2.17;;;;;;;19.64;100.00;100945.31;5029794;28;20431;-81
2022/06/23 05:57:25;;;;;;;3.47;1.93;;;;;;;19.31;100.00;100949.53;5034703;28;20434;-81
2022/06/23 06:00:07;;;;;;;4.65;2.17;;;;;;;19.40;100.00;100949.50;5024431;28;20958;-81
2022/06/23 06:02:48;;;;;;;4.00;2.20;;;;;;;19.29;100.00;100951.00;5027891;28;20425;-81
2022/06/23 06:05:28;;;;;;;4.35;2.13;;;;;;;19.08;100.00;100946.25;5031494;28;20437;-80
2022/06/23 06:08:06;;;;;;;3.97;2.03;;;;;;;19.01;100.00;100949.50;5009248;28;21260;-81
2022/06/23 06:10:40;;;;;;;4.55;2.20;;;;;;;19.06;100.00;100956.81;5015948;28;20430;-80
2022/06/23 06:13:19;;;;;;;4.60;2.38;;;;;;;18.68;100.00;100954.78;5001308;28;20771;-81
2022/06/23 06:15:58;;;;;;;4.88;2.40;;;;;;;18.80;100.00;100967.91;5007844;28;20434;-81
2022/06/23 06:18:36;;;;;;;3.90;2.22;;;;;;;18.98;100.00;100960.41;5011547;28;20446;-80
2022/06/23 06:21:16;;;;;;;6.28;3.15;;;;;;;19.07;100.00;100954.84;5009038;28;20435;-80
2022/06/23 06:23:52;;;;;;;5.10;2.50;;;;;;;18.82;100.00;100958.16;5009008;28;20523;-82
2022/06/23 06:26:30;;;;;;;4.68;2.33;;;;;;;19.09;100.00;100967.19;5014593;28;20416;-81
2022/06/23 06:29:13;;;;;;;5.40;2.67;;;;;;;18.86;100.00;100961.06;5005404;28;20431;-82
2022/06/23 06:31:47;;;;;;;4.30;2.40;;;;;;;18.85;100.00;100959.44;4991732;28;20438;-81
2022/06/23 06:34:28;;;;;;;11.85;2.72;;;;;;;18.88;100.00;100950.56;4991496;28;20450;-85
2022/06/23 06:37:01;;;;;;;8.05;3.50;;;;;;;19.06;100.00;100953.22;4997481;28;20441;-83
2022/06/23 06:39:35;;;;;;;5.88;2.50;;;;;;;19.20;100.00;100948.31;4999443;28;21597;-81
2022/06/23 06:42:08;;;;;;;4.03;2.27;;;;;;;19.07;100.00;100946.56;5000948;28;20427;-83
2022/06/23 06:44:45;;;;;;;4.22;2.60;;;;;;;19.08;100.00;100948.19;4994832;28;20423;-81
2022/06/23 06:47:22;;;;;;;5.35;2.63;;;;;;;19.05;100.00;100944.16;5001155;28;20415;-81
2022/06/23 06:49:54;;;;;;;4.60;2.30;;;;;;;19.11;100.00;100942.00;4995820;28;20470;-82
2022/06/23 06:52:29;;;;;;;5.38;2.50;;;;;;;19.11;100.00;100942.00;4995691;28;20435;-82
2022/06/23 06:55:07;;;;;;;4.13;2.35;;;;;;;19.07;100.00;100949.34;4993582;28;20427;-82
2022/06/23 06:57:44;;;;;;;4.47;2.20;;;;;;;19.17;100.00;100954.50;4992713;28;20477;-82
2022/06/23 07:00:19;;;;;;;3.90;2.30;;;;;;;19.26;100.00;100955.25;4997059;28;20927;-82
2022/06/23 07:02:57;;;;;;;5.50;2.40;;;;;;;19.23;100.00;100949.59;4991146;28;20435;-82
2022/06/23 07:05:40;;;;;;;3.97;2.10;;;;;;;19.40;100.00;100954.22;4993954;28;20435;-83
2022/06/23 07:08:12;;;;;;;4.72;2.40;;;;;;;19.51;100.00;100953.50;4991213;28;20430;-83
2022/06/23 07:10:49;;;;;;;3.75;2.30;;;;;;;19.62;100.00;100961.38;4993576;28;20431;-82
2022/06/23 07:13:28;;;;;;;6.97;2.53;;;;;;;19.56;100.00;100952.50;5006396;28;20415;-80
2022/06/23 07:16:10;;;;;;;3.72;2.22;;;;;;;19.85;100.00;100943.38;4996126;28;20442;-82
2022/06/23 07:18:50;;;;;;;4.43;2.38;;;;;;;19.71;100.00;100935.34;4994361;28;20438;-82
2022/06/23 07:21:32;;;;;;;3.75;1.95;;;;;;;19.98;100.00;100947.03;5000923;28;20438;-81
2022/06/23 07:24:13;;;;;;;4.05;2.00;;;;;;;20.01;100.00;100953.81;4993214;28;20427;-82
2022/06/23 07:26:46;;;;;;;3.25;2.00;;;;;;;20.08;100.00;100950.50;4999026;28;20749;-81
2022/06/23 07:29:29;;;;;;;5.53;2.17;;;;;;;20.10;100.00;100940.75;4996623;28;21124;-81
2022/06/23 07:32:20;;;;;;;3.50;2.10;;;;;;;20.02;100.00;100933.34;4995453;28;20434;-84
2022/06/23 07:34:58;;;;;;;4.68;2.10;;;;;;;20.25;100.00;100936.56;4999991;28;20454;-82
2022/06/23 07:37:38;;;;;;;4.95;2.05;;;;;;;20.35;100.00;100930.59;5001310;28;20438;-81
2022/06/23 07:40:15;;;;;;;3.78;1.92;;;;;;;20.33;100.00;100934.88;4998632;28;20415;-80
2022/06/23 07:42:57;;;;;;;4.15;2.15;;;;;;;20.51;100.00;100930.75;4987671;28;20442;-82
2022/06/23 07:45:34;;;;;;;4.50;2.10;;;;;;;20.56;100.00;100938.84;4991281;28;20427;-83
2022/06/23 07:48:03;;;;;;;6.13;2.10;;;;;;;20.61;100.00;100945.31;4992818;28;20418;-82
2022/06/23 07:50:36;;;;;;;3.25;1.90;;;;;;;20.60;100.00;100941.72;4998620;28;20431;-82
2022/06/23 07:53:17;;;;;;;5.22;1.70;;;;;;;20.79;100.00;100935.69;5000115;28;20907;-82
2022/06/23 07:55:51;;;;;;;3.47;1.80;;;;;;;20.91;100.00;100937.69;5008450;28;20411;-82
2022/06/23 07:58:23;;;;;;;3.30;1.80;;;;;;;21.02;100.00;100938.84;5005326;28;20433;-82
2022/06/23 08:01:03;;;;;;;3.90;1.50;;;;;;;21.20;100.00;100941.38;5002140;28;20415;-82
2022/06/23 08:03:44;;;;;;;3.50;1.57;;;;;;;21.18;100.00;100936.16;4999109;28;20403;-82
2022/06/23 08:06:21;;;;;;;2.83;1.47;;;;;;;21.33;100.00;100947.72;4998095;28;20422;-80
2022/06/23 08:08:55;;;;;;;5.20;1.60;;;;;;;21.33;100.00;100945.75;5009540;28;20886;-83
2022/06/23 08:14:29;;;;;;;3.53;1.65;;;;;;;21.45;100.00;100947.72;5007635;28;20419;-81
2022/06/23 08:17:05;;;;;;;2.92;1.60;;;;;;;21.59;100.00;100941.84;5005334;28;20435;-82
2022/06/23 08:19:44;;;;;;;2.83;1.58;;;;;;;21.62;100.00;100945.88;4998066;28;20452;-81
2022/06/23 08:22:21;;;;;;;3.45;1.50;;;;;;;21.79;100.00;100944.78;4999349;28;20434;-81
2022/06/23 08:25:01;;;;;;;3.42;1.70;;;;;;;21.87;100.00;100936.31;5003570;28;20426;-81
2022/06/23 08:27:34;;;;;;;3.90;1.75;;;;;;;21.92;100.00;100941.63;4995651;28;20782;-81
2022/06/23 08:30:07;;;;;;;3.85;1.70;;;;;;;21.80;100.00;100922.28;4993866;28;20480;-82
2022/06/23 08:32:37;;;;;;;3.72;1.60;;;;;;;22.01;100.00;100946.22;4999073;28;20422;-82
2022/06/23 08:35:16;;;;;;;3.78;1.60;;;;;;;22.29;100.00;100935.16;5003352;28;20423;-80
2022/06/23 08:37:53;;;;;;;3.15;1.60;;;;;;;22.12;100.00;100939.03;5001537;28;20437;-81
2022/06/23 08:40:39;;;;;;;3.57;1.73;;;;;;;22.19;100.00;100944.78;5000625;28;20903;-82
2022/06/23 08:43:15;;;;;;;3.35;1.65;;;;;;;22.24;100.00;100940.94;4997371;28;20415;-82
2022/06/23 08:45:57;;;;;;;4.22;1.73;;;;;;;22.42;100.00;100931.16;4994010;28;20434;-82
2022/06/23 08:48:37;;;;;;;4.90;1.83;;;;;;;22.48;100.00;100928.94;4994765;28;20434;-81
2022/06/23 08:51:18;;;;;;;5.03;1.80;;;;;;;22.78;100.00;100936.06;4995170;28;20427;-82
2022/06/23 08:54:02;;;;;;;3.25;1.60;;;;;;;22.59;100.00;100929.22;4993804;28;20438;-82
2022/06/23 08:56:44;;;;;;;3.55;1.70;;;;;;;22.68;100.00;100921.56;5004123;28;20431;-82
2022/06/23 08:59:24;;;;;;;2.97;1.60;;;;;;;22.94;100.00;100931.31;5005402;28;20431;-81
2022/06/23 09:02:06;;;;;;;3.73;1.70;;;;;;;23.09;89.99;100918.59;4995422;28;20431;-81
2022/06/23 09:04:48;;;;;;;3.33;1.70;;;;;;;23.02;100.00;100927.56;5011628;28;20425;-83
2022/06/23 09:07:45;;;;;;;3.03;1.42;;;;;;;22.92;95.40;100917.81;5016256;28;20433;-83
2022/06/23 09:10:30;;;;;;;3.72;1.60;;;;;;;23.35;98.09;100920.84;5002978;28;20957;-81
2022/06/23 09:13:12;;;;;;;2.50;1.50;;;;;;;23.31;98.39;100919.13;5005637;28;20435;-83
2022/06/23 09:16:03;;;;;;;2.88;1.55;;;;;;;23.15;97.91;100913.63;5007576;28;21064;-84
2022/06/23 09:19:10;;;;;;;3.35;1.50;;;;;;;23.33;97.96;100903.72;5001143;28;20423;-82
2022/06/23 09:22:11;;;;;;;2.42;1.50;;;;;;;23.53;92.34;100910.13;5006168;28;20480;-80
2022/06/23 09:24:59;;;;;;;3.43;1.63;;;;;;;23.57;88.92;100910.19;5003723;28;20445;-80
2022/06/23 09:27:43;;;;;;;2.60;1.52;;;;;;;23.53;93.91;100901.78;5000887;28;20442;-82
2022/06/23 09:30:28;;;;;;;3.72;2.15;;;;;;;23.56;93.58;100903.84;5002408;28;20431;-81
2022/06/23 09:33:00;;;;;;;4.13;2.00;;;;;;;23.82;100.00;100899.59;5013719;28;20423;-80
2022/06/23 09:35:57;;;;;;;4.88;2.50;;;;;;;24.16;82.32;100904.69;5004002;28;20533;-80
2022/06/23 09:39:03;;;;;;;5.55;1.90;;;;;;;23.86;93.66;100894.13;5002157;28;20484;-79
2022/06/23 09:41:58;;;;;;;3.47;1.80;;;;;;;24.08;89.48;100890.63;5005060;28;21128;-82
2022/06/23 09:44:56;;;;;;;3.42;1.65;;;;;;;24.25;92.08;100888.56;5010434;28;20423;-80
2022/06/23 09:47:42;;;;;;;3.08;1.70;;;;;;;24.18;85.64;100885.66;5012316;28;20441;-80
2022/06/23 09:50:38;;;;;;;3.35;1.60;;;;;;;24.51;99.07;100878.69;5006074;28;20427;-82
2022/06/23 09:53:32;;;;;;;2.70;1.70;;;;;;;24.59;94.88;100874.88;5001437;28;21115;-81
2022/06/23 09:56:32;;;;;;;2.60;1.63;;;;;;;24.76;78.91;100879.97;4963407;28;20420;-80
2022/06/23 09:59:19;;;;;;;2.78;1.60;;;;;;;24.78;69.91;100879.59;5015421;28;20431;-82
2022/06/23 10:01:58;;;;;;;2.95;1.50;;;;;;;24.92;75.11;100868.66;5005442;28;20930;-81
2022/06/23 10:04:50;;;;;;;2.25;1.50;;;;;;;24.56;57.76;100870.06;4995093;28;20430;-79
2022/06/23 10:07:48;;;;;;;2.95;1.60;;;;;;;24.50;67.32;100871.50;5000753;28;20753;-81
2022/06/23 10:10:30;;;;;;;2.92;1.80;;;;;;;24.47;67.46;100863.91;4992815;28;20903;-82
2022/06/23 10:13:13;;;;;;;3.95;1.70;;;;;;;24.41;68.05;100866.22;5000691;28;20435;-82
2022/06/23 10:16:02;;;;;;;3.17;1.70;;;;;;;24.52;64.16;100867.19;5006381;28;21007;-79
2022/06/23 10:19:05;;;;;;;5.20;1.63;;;;;;;25.01;74.52;100862.03;5000982;28;20423;-80
2022/06/23 10:21:51;;;;;;;4.32;1.70;;;;;;;25.22;58.76;100862.38;4997268;28;20419;-82
2022/06/23 10:24:57;;;;;;;3.72;1.70;;;;;;;25.03;51.40;100863.28;5000889;28;20525;-81
2022/06/23 10:27:47;;;;;;;5.20;1.80;;;;;;;24.81;52.97;100856.56;4993949;28;20438;-81
2022/06/23 10:30:30;;;;;;;3.05;1.58;;;;;;;24.95;51.61;100850.41;5002197;28;20426;-82
2022/06/23 10:33:14;;;;;;;2.92;1.60;;;;;;;25.12;59.65;100851.84;5003281;28;20430;-82
2022/06/23 10:35:59;;;;;;;4.53;1.83;;;;;;;25.22;53.79;100847.66;5014493;28;20422;-82
2022/06/23 10:38:52;;;;;;;4.20;2.33;;;;;;;25.45;72.69;100848.38;5001330;28;20434;-82
2022/06/23 10:41:45;;;;;;;4.13;2.00;;;;;;;25.75;54.29;100832.81;5006430;28;20743;-80
2022/06/23 10:44:42;;;;;;;3.13;1.60;;;;;;;25.96;67.78;100832.25;4997478;28;20431;-81
2022/06/23 10:47:30;;;;;;;3.00;1.60;;;;;;;26.09;57.49;100838.41;5006423;28;20946;-82
2022/06/23 10:50:24;;;;;;;3.40;1.77;;;;;;;26.11;59.08;100834.00;5006180;28;21146;-81
2022/06/23 10:53:17;;;;;;;5.13;1.73;;;;;;;26.14;50.12;100832.44;5004874;28;20757;-80
2022/06/23 10:56:05;;;;;;;3.22;1.77;;;;;;;25.98;44.51;100827.09;5005509;28;20419;-80
2022/06/23 10:59:04;;;;;;;2.95;1.65;;;;;;;26.02;52.30;100818.78;5005727;28;20435;-81
2022/06/23 11:02:07;;;;;;;3.28;1.70;;;;;;;26.21;53.75;100824.19;5000271;28;20427;-80
2022/06/23 11:04:48;;;;;;;2.88;1.50;;;;;;;26.17;43.94;100814.97;4998676;28;21516;-80
2022/06/23 11:07:36;;;;;;;4.70;1.63;;;;;;;26.36;59.34;100813.13;5004646;28;20446;-82
2022/06/23 11:10:27;;;;;;;3.03;1.67;;;;;;;26.44;47.56;100812.00;5004095;28;20438;-79
2022/06/23 11:13:13;;;;;;;3.65;1.95;;;;;;;26.55;50.78;100803.72;5001367;28;20422;-81
2022/06/23 11:15:49;;;;;;;4.13;1.73;;;;;;;26.56;51.76;100803.34;5002871;28;20415;-81
2022/06/23 11:18:40;;;;;;;3.30;1.73;;;;;;;26.38;47.89;100808.00;5008541;28;20438;-81
2022/06/23 11:21:33;;;;;;;3.50;1.60;;;;;;;26.57;56.44;100810.53;5003273;28;20439;-81
2022/06/23 11:24:15;;;;;;;2.25;1.50;;;;;;;26.74;48.29;100805.50;5011360;28;20447;-81
2022/06/23 11:26:59;;;;;;;3.35;1.92;;;;;;;26.64;47.28;100791.03;5003948;28;20434;-81
2022/06/23 11:29:52;;;;;;;3.60;1.90;;;;;;;26.77;49.99;100799.94;4997628;28;20463;-82
2022/06/23 11:32:36;;;;;;;3.75;1.80;;;;;;;27.04;47.17;100801.69;5002821;28;20784;-81
2022/06/23 11:35:33;;;;;;;2.95;1.50;;;;;;;26.98;47.12;100787.28;5016621;28;20419;-81
2022/06/23 11:38:24;;;;;;;3.92;1.90;;;;;;;27.20;41.58;100791.00;5003002;28;20489;-80
2022/06/23 11:41:08;;;;;;;3.65;1.90;;;;;;;27.29;46.78;100791.44;5000385;28;20431;-80
2022/06/23 11:43:52;;;;;;;2.95;1.80;;;;;;;27.41;48.21;100787.50;4999361;28;20431;-80
2022/06/23 11:46:29;;;;;;;2.35;1.50;;;;;;;26.94;38.04;100790.09;5005516;28;20498;-80
2022/06/23 11:49:22;;;;;;;3.10;1.58;;;;;;;26.90;38.16;100788.44;4997193;28;20430;-80
2022/06/23 11:52:07;;;;;;;3.08;1.67;;;;;;;27.01;52.79;100780.13;4999377;28;20437;-80
2022/06/23 11:55:02;;;;;;;2.92;1.70;;;;;;;27.33;48.44;100789.47;5002100;28;21322;-80
2022/06/23 11:57:59;;;;;;;2.85;1.50;;;;;;;27.43;45.72;100785.16;5001104;28;20449;-81
2022/06/23 12:00:43;;;;;;;3.40;1.50;;;;;;;27.55;41.44;100783.19;5007723;28;20431;-83
2022/06/23 12:03:34;;;;;;;2.55;1.40;;;;;;;27.64;44.60;100778.03;5002978;28;20438;-81
2022/06/23 12:06:16;;;;;;;2.58;1.50;;;;;;;27.70;47.96;100775.63;4998580;28;20543;-80
2022/06/23 12:08:59;;;;;;;2.50;1.60;;;;;;;27.63;40.16;100766.06;5002996;28;21942;-80
2022/06/23 12:11:35;;;;;;;2.60;1.60;;;;;;;27.33;40.01;100774.72;4999587;28;21234;-80
2022/06/23 12:14:13;;;;;;;3.75;1.90;;;;;;;27.20;43.16;100763.06;5000053;28;20434;-84
2022/06/23 12:16:53;;;;;;;2.05;1.50;;;;;;;27.26;39.33;100755.09;5000703;28;20418;-83
2022/06/23 12:19:35;;;;;;;2.65;1.55;;;;;;;27.31;47.83;100766.69;5004316;28;20470;-82
2022/06/23 12:22:10;;;;;;;2.97;1.67;;;;;;;27.65;40.45;100760.84;5004188;28;20926;-78
2022/06/23 12:24:53;;;;;;;3.95;1.77;;;;;;;27.63;44.55;100757.66;4996585;28;20423;-82
2022/06/23 12:27:31;;;;;;;3.20;1.60;;;;;;;27.47;37.18;100758.00;5000917;28;21316;-83
2022/06/23 12:30:07;;;;;;;2.17;1.48;;;;;;;27.64;38.84;100755.66;4999084;28;20750;-82
2022/06/23 12:32:44;;;;;;;3.25;1.67;;;;;;;27.49;40.05;100752.81;5004941;28;20481;-79